Time;durP1;ratioP1;P1;durP2;ratioP2;P2;SDS_P1;SDS_P2;PMS_P1;PMS_P2;Temp;Humidity;BMP_temperature;BMP_pressure;BME280_temperature;BME280_humidity;BME280_pressure;Samples;Min_cycle;Max_cycle;Signal;HPM_P1;HPM_P2
2021/07/04 00:00:37;;;;;;;17.92;6.88;;;;;;;15.06;91.53;99851.28;4968139;28;20026;-81
2021/07/04 00:03:03;;;;;;;10.63;5.65;;;;;;;15.14;91.81;99872.63;4972748;28;20411;-82
2021/07/04 00:05:33;;;;;;;14.43;6.35;;;;;;;15.02;91.88;99858.19;4968450;28;20390;-82
2021/07/04 00:07:58;;;;;;;14.32;6.75;;;;;;;15.03;92.12;99857.97;4965721;28;20152;-81
2021/07/04 00:10:26;;;;;;;13.15;6.38;;;;;;;15.01;92.06;99861.97;4967565;28;20564;-81
2021/07/04 00:12:51;;;;;;;17.80;7.35;;;;;;;14.98;92.18;99863.25;4970834;28;20113;-82
2021/07/04 00:15:20;;;;;;;14.27;6.15;;;;;;;15.00;92.24;99868.41;4954840;28;20109;-81
2021/07/04 00:17:45;;;;;;;17.90;6.68;;;;;;;14.97;92.28;99861.56;4980002;28;20121;-81
2021/07/04 00:20:13;;;;;;;18.80;7.28;;;;;;;14.91;92.55;99852.47;4954058;28;20123;-81
2021/07/04 00:22:39;;;;;;;12.27;7.55;;;;;;;14.94;92.55;99856.63;4971812;28;20023;-81
2021/07/04 00:25:06;;;;;;;15.70;6.30;;;;;;;14.99;92.87;99869.47;4989570;28;20026;-81
2021/07/04 00:27:31;;;;;;;11.82;5.15;;;;;;;14.97;92.79;99867.00;4963926;28;20038;-82
2021/07/04 00:29:57;;;;;;;11.95;5.15;;;;;;;14.92;92.84;99858.72;4972845;28;20026;-82
2021/07/04 00:32:22;;;;;;;14.10;6.68;;;;;;;14.95;92.93;99860.97;4956319;28;20105;-82
2021/07/04 00:34:48;;;;;;;10.63;4.90;;;;;;;15.00;93.19;99871.94;4978860;28;20089;-82
2021/07/04 00:37:13;;;;;;;11.02;5.88;;;;;;;14.90;93.05;99853.56;4972668;28;20052;-81
2021/07/04 00:39:38;;;;;;;11.18;6.15;;;;;;;14.92;93.33;99856.00;4981871;28;21126;-82
2021/07/04 00:42:04;;;;;;;13.57;6.65;;;;;;;14.88;93.45;99862.94;4957541;28;20397;-81
2021/07/04 00:44:29;;;;;;;14.95;7.72;;;;;;;14.82;93.52;99853.00;4965202;28;20102;-81
2021/07/04 00:46:55;;;;;;;19.92;8.23;;;;;;;14.78;93.56;99858.06;4983754;28;20089;-81
2021/07/04 00:49:20;;;;;;;19.05;8.20;;;;;;;14.80;93.82;99864.06;4986700;28;20042;-81
2021/07/04 00:51:46;;;;;;;16.95;7.82;;;;;;;14.77;93.95;99864.53;4971606;28;20018;-82
2021/07/04 00:54:12;;;;;;;14.77;7.30;;;;;;;14.77;94.03;99861.00;4986278;28;20092;-82
2021/07/04 00:56:37;;;;;;;19.02;9.20;;;;;;;14.73;94.14;99855.19;4964629;28;20033;-81
2021/07/04 00:59:03;;;;;;;20.98;9.13;;;;;;;14.70;94.30;99851.06;4961836;28;20050;-81
2021/07/04 01:01:30;;;;;;;17.25;7.55;;;;;;;14.75;94.43;99858.50;4977197;28;20072;-80
2021/07/04 01:03:55;;;;;;;20.00;8.55;;;;;;;14.71;94.29;99841.91;4969910;28;20014;-81
2021/07/04 01:06:20;;;;;;;18.23;7.47;;;;;;;14.73;94.29;99849.78;4977043;28;20026;-81
2021/07/04 01:08:46;;;;;;;16.73;7.63;;;;;;;14.72;94.44;99850.84;4978643;28;20022;-81
2021/07/04 01:11:11;;;;;;;19.52;8.00;;;;;;;14.74;94.15;99843.34;4976484;28;20031;-81
2021/07/04 01:13:37;;;;;;;28.20;8.00;;;;;;;14.76;94.40;99843.09;4970987;28;20146;-81
2021/07/04 01:16:03;;;;;;;19.00;7.93;;;;;;;14.76;94.25;99845.78;4973635;28;20081;-81
2021/07/04 01:18:28;;;;;;;17.50;7.28;;;;;;;14.75;94.29;99834.16;4958006;28;20087;-81
2021/07/04 01:20:54;;;;;;;20.00;7.30;;;;;;;14.79;94.40;99848.91;4976837;28;20030;-81
2021/07/04 01:23:19;;;;;;;18.08;6.82;;;;;;;14.76;94.05;99849.31;4968514;28;20069;-81
2021/07/04 01:25:49;;;;;;;16.73;6.00;;;;;;;14.69;94.23;99835.06;4979741;28;20022;-81
2021/07/04 01:28:16;;;;;;;20.05;8.05;;;;;;;14.70;94.13;99837.53;4969726;28;20053;-81
2021/07/04 01:30:43;;;;;;;18.73;6.75;;;;;;;14.74;94.28;99843.34;4976417;28;20057;-81
2021/07/04 01:33:09;;;;;;;17.05;7.93;;;;;;;14.71;94.25;99832.94;4990022;28;20061;-81
2021/07/04 01:35:34;;;;;;;20.10;7.63;;;;;;;14.75;94.03;99846.84;4992948;28;20026;-81
2021/07/04 01:37:59;;;;;;;24.48;8.02;;;;;;;14.75;94.18;99841.44;4980491;28;20027;-81
2021/07/04 01:40:25;;;;;;;20.10;7.60;;;;;;;14.73;94.00;99842.47;4978208;28;20030;-81
2021/07/04 01:42:51;;;;;;;20.80;8.23;;;;;;;14.71;93.98;99841.91;4959861;28;20022;-81
2021/07/04 01:45:19;;;;;;;21.27;8.75;;;;;;;14.68;93.90;99836.91;4986551;28;20026;-80
2021/07/04 01:47:46;;;;;;;28.83;9.10;;;;;;;14.72;93.78;99843.53;4971266;28;20022;-81
2021/07/04 01:50:19;;;;;;;25.20;10.57;;;;;;;14.71;93.83;99841.06;4976315;28;20039;-81
2021/07/04 01:52:44;;;;;;;20.70;8.48;;;;;;;14.67;93.73;99843.41;4975552;28;20549;-81
2021/07/04 01:55:11;;;;;;;26.55;10.00;;;;;;;14.69;93.95;99843.19;4977986;28;20035;-81
2021/07/04 01:57:37;;;;;;;22.30;8.85;;;;;;;14.64;93.98;99833.03;4990459;28;20807;-81
2021/07/04 02:00:24;;;;;;;27.70;8.82;;;;;;;14.64;94.15;99834.91;4975965;28;20118;-82
2021/07/04 02:02:52;;;;;;;26.98;9.13;;;;;;;14.63;94.02;99834.09;4986896;28;20022;-81
2021/07/04 02:05:18;;;;;;;28.55;9.13;;;;;;;14.70;93.79;99837.53;4992077;28;20058;-81
2021/07/04 02:07:44;;;;;;;27.63;9.65;;;;;;;14.73;93.91;99837.06;5004950;28;20037;-81
2021/07/04 02:10:15;;;;;;;22.38;9.23;;;;;;;14.73;93.79;99842.47;4988198;28;20038;-81
2021/07/04 02:12:40;;;;;;;32.53;10.63;;;;;;;14.73;93.62;99828.13;4982186;28;20166;-82
2021/07/04 02:15:26;;;;;;;26.25;10.18;;;;;;;14.73;93.50;99828.13;4981156;28;20554;-81
2021/07/04 02:17:51;;;;;;;24.02;10.10;;;;;;;14.75;93.35;99831.44;4976968;28;20415;-81
2021/07/04 02:20:33;;;;;;;26.80;10.68;;;;;;;14.79;93.29;99829.97;4968797;28;20022;-81
2021/07/04 02:23:01;;;;;;;24.48;10.02;;;;;;;14.80;93.04;99836.19;4965484;28;20489;-81
2021/07/04 02:25:27;;;;;;;24.52;9.93;;;;;;;14.80;93.05;99830.78;4989683;28;20031;-81
2021/07/04 02:27:54;;;;;;;23.52;9.77;;;;;;;14.78;93.05;99833.69;4973283;28;20035;-81
2021/07/04 02:30:20;;;;;;;21.77;8.90;;;;;;;14.75;93.22;99830.63;4970700;28;20022;-81
2021/07/04 02:32:45;;;;;;;23.48;8.70;;;;;;;14.75;93.20;99820.63;4968168;28;20022;-81
2021/07/04 02:35:12;;;;;;;25.23;8.85;;;;;;;14.77;93.05;99821.22;4979663;28;20426;-81
2021/07/04 02:37:37;;;;;;;18.75;7.85;;;;;;;14.75;93.03;99819.81;4983452;28;20032;-81
2021/07/04 02:40:04;;;;;;;20.25;7.32;;;;;;;14.73;93.29;99817.31;4998354;28;20089;-81
2021/07/04 02:42:29;;;;;;;20.13;7.97;;;;;;;14.66;93.28;99803.88;4965184;28;20033;-81
2021/07/04 02:44:54;;;;;;;18.92;7.53;;;;;;;14.71;93.18;99814.00;4978557;28;20033;-81
2021/07/04 02:47:20;;;;;;;20.50;7.53;;;;;;;14.71;93.06;99814.00;4987755;28;20026;-81
2021/07/04 02:49:45;;;;;;;22.75;8.30;;;;;;;14.65;93.16;99814.91;4979651;28;20112;-81
2021/07/04 02:52:11;;;;;;;22.92;8.07;;;;;;;14.64;93.20;99811.38;4975320;28;20038;-81
2021/07/04 02:54:36;;;;;;;21.27;7.20;;;;;;;14.73;93.05;99823.53;4982719;28;20026;-81
2021/07/04 02:57:05;;;;;;;20.92;7.45;;;;;;;14.73;93.15;99817.31;4967708;28;20045;-81
2021/07/04 02:59:31;;;;;;;18.42;7.05;;;;;;;14.75;93.32;99820.63;4972540;28;20030;-81
2021/07/04 03:01:57;;;;;;;22.27;8.15;;;;;;;14.76;93.41;99827.69;4990896;28;20022;-81
2021/07/04 03:04:22;;;;;;;20.40;8.18;;;;;;;14.70;93.27;99818.59;4961549;28;20142;-81
2021/07/04 03:06:47;;;;;;;24.10;7.38;;;;;;;14.73;93.30;99820.84;4974655;28;20026;-81
2021/07/04 03:09:13;;;;;;;35.70;13.38;;;;;;;14.80;93.28;99817.25;4995013;28;20113;-81
2021/07/04 03:11:40;;;;;;;44.95;21.75;;;;;;;14.80;93.39;99815.34;4983156;28;20546;-81
2021/07/04 03:14:06;;;;;;;51.65;26.05;;;;;;;14.83;93.16;99812.19;4978556;28;20026;-80
2021/07/04 03:16:31;;;;;;;38.15;15.25;;;;;;;14.81;93.21;99806.19;5001703;28;20069;-81
2021/07/04 03:18:56;;;;;;;29.60;12.82;;;;;;;14.86;93.19;99811.75;4972480;28;20034;-81
2021/07/04 03:21:22;;;;;;;24.58;10.88;;;;;;;14.83;93.19;99812.19;4973876;28;20030;-80
2021/07/04 03:23:47;;;;;;;24.25;10.68;;;;;;;14.76;93.36;99797.09;4972126;28;20015;-81
2021/07/04 03:26:13;;;;;;;22.00;8.63;;;;;;;14.81;93.43;99816.19;4970263;28;20030;-81
2021/07/04 03:28:38;;;;;;;23.13;7.65;;;;;;;14.75;93.53;99812.50;4980146;28;20026;-82
2021/07/04 03:31:04;;;;;;;23.20;7.80;;;;;;;14.76;93.29;99811.44;4974495;28;20037;-81
2021/07/04 03:33:29;;;;;;;23.55;7.47;;;;;;;14.84;93.25;99813.84;4960849;28;20053;-80
2021/07/04 03:35:55;;;;;;;22.67;8.45;;;;;;;14.84;93.17;99808.44;4976761;28;20069;-80
2021/07/04 03:38:20;;;;;;;17.83;7.82;;;;;;;14.82;93.10;99805.13;4972571;28;20023;-80
2021/07/04 03:40:46;;;;;;;16.95;6.47;;;;;;;14.78;93.13;99806.63;4971793;28;20030;-81
2021/07/04 03:43:11;;;;;;;17.63;5.90;;;;;;;14.71;93.37;99803.16;4973950;28;20026;-80
2021/07/04 03:45:37;;;;;;;12.57;5.93;;;;;;;14.76;93.17;99811.44;4972475;28;20479;-80
2021/07/04 03:48:02;;;;;;;17.80;6.68;;;;;;;14.71;93.52;99806.72;4969548;28;20050;-80
2021/07/04 03:50:29;;;;;;;21.48;10.25;;;;;;;14.79;93.51;99821.84;4991100;28;20030;-80
2021/07/04 03:52:56;;;;;;;22.85;10.43;;;;;;;14.79;93.38;99810.16;4985530;28;20057;-80
2021/07/04 03:55:21;;;;;;;24.80;9.98;;;;;;;14.74;93.43;99808.16;4981850;28;20030;-80
2021/07/04 03:57:47;;;;;;;28.38;15.07;;;;;;;14.79;93.59;99812.88;4977763;28;20014;-80
2021/07/04 04:00:13;;;;;;;24.48;11.68;;;;;;;14.79;93.35;99816.44;4954801;28;20479;-80
2021/07/04 04:02:38;;;;;;;18.17;7.85;;;;;;;14.73;93.40;99801.06;4955515;28;20025;-80
2021/07/04 04:05:04;;;;;;;22.35;9.82;;;;;;;14.71;93.32;99819.41;4977791;28;20041;-80
2021/07/04 04:07:30;;;;;;;18.90;8.35;;;;;;;14.67;93.55;99807.41;4968765;28;20034;-80
2021/07/04 04:09:56;;;;;;;19.50;9.68;;;;;;;14.67;93.47;99805.50;4967009;28;20041;-80
2021/07/04 04:12:21;;;;;;;17.60;9.18;;;;;;;14.73;93.59;99809.19;4971163;28;20045;-80
2021/07/04 04:14:47;;;;;;;12.05;5.60;;;;;;;14.64;93.29;99802.44;4960850;28;20068;-80
2021/07/04 04:17:13;;;;;;;14.80;5.25;;;;;;;14.61;93.16;99806.44;4953272;28;20026;-81
2021/07/04 04:19:39;;;;;;;13.25;5.45;;;;;;;14.67;93.13;99818.22;4975107;28;20053;-80
2021/07/04 04:22:04;;;;;;;13.05;5.38;;;;;;;14.69;93.16;99821.53;4954025;28;20027;-82
2021/07/04 04:24:30;;;;;;;12.25;5.00;;;;;;;14.68;92.99;99822.56;4984393;28;20455;-82
2021/07/04 04:26:55;;;;;;;12.77;4.88;;;;;;;14.63;92.78;99817.84;4971141;28;20026;-82
2021/07/04 04:29:21;;;;;;;8.88;4.63;;;;;;;14.58;92.84;99819.56;4969916;28;20042;-82
2021/07/04 04:31:47;;;;;;;13.95;5.20;;;;;;;14.56;93.08;99827.09;4970781;28;20034;-81
2021/07/04 04:34:14;;;;;;;12.50;5.60;;;;;;;14.58;92.96;99820.41;4973784;28;20073;-82
2021/07/04 04:36:40;;;;;;;12.93;5.15;;;;;;;14.56;93.03;99817.09;4955612;28;21052;-82
2021/07/04 04:39:06;;;;;;;14.93;5.43;;;;;;;14.61;93.17;99816.44;4989653;28;20042;-82
2021/07/04 04:41:33;;;;;;;16.50;5.72;;;;;;;14.57;92.93;99813.31;4951457;28;20042;-82
2021/07/04 04:43:59;;;;;;;13.70;5.90;;;;;;;14.57;92.79;99813.31;4960182;28;20093;-82
2021/07/04 04:46:25;;;;;;;14.80;5.80;;;;;;;14.50;92.70;99802.56;4965420;28;20038;-82
2021/07/04 04:48:51;;;;;;;16.30;6.10;;;;;;;14.56;92.63;99819.81;4953157;28;20037;-82
2021/07/04 04:51:16;;;;;;;16.10;5.65;;;;;;;14.56;92.57;99817.09;4953934;28;20471;-82
2021/07/04 04:53:41;;;;;;;16.65;6.40;;;;;;;14.50;92.39;99807.13;5000089;28;20037;-82
2021/07/04 04:56:07;;;;;;;13.23;5.55;;;;;;;14.47;92.53;99804.88;4984344;28;20045;-82
2021/07/04 04:58:32;;;;;;;19.25;5.93;;;;;;;14.54;92.30;99821.06;4963674;28;20030;-82
2021/07/04 05:00:58;;;;;;;17.05;5.57;;;;;;;14.47;92.30;99805.72;4972182;28;20117;-82
2021/07/04 05:03:23;;;;;;;17.92;5.78;;;;;;;14.50;92.27;99818.78;4957598;28;20466;-82
2021/07/04 05:05:49;;;;;;;16.88;7.38;;;;;;;14.46;92.33;99809.47;4955986;28;20423;-82
2021/07/04 05:08:15;;;;;;;19.85;6.95;;;;;;;14.42;92.30;99804.72;4962429;28;20030;-81
2021/07/04 05:10:41;;;;;;;15.35;6.10;;;;;;;14.50;92.27;99804.41;4978806;28;20050;-82
2021/07/04 05:13:06;;;;;;;16.05;6.43;;;;;;;14.31;92.19;99784.66;4976344;28;20049;-82
2021/07/04 05:15:32;;;;;;;12.80;6.35;;;;;;;14.24;91.92;99773.91;4951793;28;20487;-82
2021/07/04 05:17:57;;;;;;;20.65;7.15;;;;;;;14.46;92.06;99812.16;4964808;28;20030;-82
2021/07/04 05:20:23;;;;;;;19.33;7.57;;;;;;;14.41;92.06;99809.31;4956840;28;20085;-82
2021/07/04 05:22:48;;;;;;;16.90;7.53;;;;;;;14.40;92.05;99810.38;4966183;28;20029;-81
2021/07/04 05:25:14;;;;;;;19.33;8.70;;;;;;;14.33;91.90;99798.78;4991421;28;20026;-81
2021/07/04 05:27:39;;;;;;;17.05;7.10;;;;;;;14.40;92.27;99807.66;4948261;28;20034;-81
2021/07/04 05:30:05;;;;;;;21.08;7.75;;;;;;;14.43;92.21;99817.19;4963104;28;20046;-81
2021/07/04 05:32:31;;;;;;;21.75;7.60;;;;;;;14.37;92.08;99805.41;4955691;28;20121;-81
2021/07/04 05:34:56;;;;;;;19.80;7.00;;;;;;;14.36;92.38;99795.63;4976915;28;20065;-81
2021/07/04 05:37:22;;;;;;;26.88;8.02;;;;;;;14.41;92.15;99806.59;4975938;28;20034;-81
2021/07/04 05:39:47;;;;;;;17.77;6.75;;;;;;;14.40;92.01;99806.84;4977615;28;20078;-82
2021/07/04 05:42:13;;;;;;;23.25;7.43;;;;;;;14.45;92.02;99815.09;4980011;28;20402;-81
2021/07/04 05:44:39;;;;;;;18.30;7.95;;;;;;;14.44;92.07;99811.56;4996533;28;20038;-81
2021/07/04 05:47:04;;;;;;;19.20;7.45;;;;;;;14.45;92.26;99810.53;4979251;28;20105;-81
2021/07/04 05:49:30;;;;;;;22.30;7.38;;;;;;;14.45;92.13;99805.13;4978338;28;20125;-81
2021/07/04 05:51:55;;;;;;;20.55;7.93;;;;;;;14.53;92.21;99812.13;4960011;28;20058;-81
2021/07/04 05:54:21;;;;;;;20.20;7.40;;;;;;;14.54;92.00;99805.66;4972362;28;20110;-81
2021/07/04 05:56:46;;;;;;;14.57;7.78;;;;;;;14.62;92.05;99805.38;4974405;28;20054;-81
2021/07/04 05:59:12;;;;;;;20.15;6.68;;;;;;;14.64;92.26;99803.25;4977236;28;21113;-81
2021/07/04 06:01:38;;;;;;;20.33;7.05;;;;;;;14.71;92.19;99797.75;4977488;28;20026;-81
2021/07/04 06:04:04;;;;;;;17.17;6.97;;;;;;;14.71;91.85;99795.06;4962649;28;20026;-81
2021/07/04 06:06:29;;;;;;;17.20;7.28;;;;;;;14.72;91.95;99796.72;4990295;28;20510;-81
2021/07/04 06:08:55;;;;;;;16.15;6.65;;;;;;;14.71;91.85;99790.50;4986905;28;20030;-82
2021/07/04 06:11:20;;;;;;;16.65;6.63;;;;;;;14.70;91.85;99794.22;4968804;28;20122;-81
2021/07/04 06:13:46;;;;;;;15.55;5.97;;;;;;;14.67;92.09;99791.16;4988680;28;20407;-81
2021/07/04 06:16:11;;;;;;;16.02;6.28;;;;;;;14.64;92.29;99797.03;4984113;28;20379;-82
2021/07/04 06:18:37;;;;;;;11.38;5.75;;;;;;;14.64;92.52;99795.16;4963091;28;20508;-82
2021/07/04 06:21:03;;;;;;;15.40;6.30;;;;;;;14.65;92.76;99801.38;4959737;28;20034;-81
2021/07/04 06:23:28;;;;;;;15.85;5.63;;;;;;;14.61;92.76;99781.25;4963001;28;20034;-82
2021/07/04 06:25:54;;;;;;;13.48;5.53;;;;;;;14.46;92.97;99751.84;4991708;28;20042;-81
2021/07/04 06:28:19;;;;;;;12.07;5.80;;;;;;;14.67;92.82;99783.06;4994347;28;20034;-81
2021/07/04 06:30:45;;;;;;;12.88;5.18;;;;;;;14.71;92.80;99793.19;4974181;28;20043;-81
2021/07/04 06:33:11;;;;;;;13.75;5.57;;;;;;;14.70;93.00;99777.19;4977550;28;20085;-81
2021/07/04 06:35:37;;;;;;;11.40;5.97;;;;;;;14.70;92.70;99779.88;4978875;28;20489;-81
2021/07/04 06:38:02;;;;;;;11.10;5.32;;;;;;;14.74;93.00;99775.69;4986317;28;20069;-81
2021/07/04 06:40:28;;;;;;;12.85;5.75;;;;;;;14.75;93.01;99788.16;4985132;28;20395;-81
2021/07/04 06:42:53;;;;;;;10.43;4.80;;;;;;;14.71;92.66;99787.78;4975073;28;20026;-81
2021/07/04 06:45:18;;;;;;;10.30;4.70;;;;;;;14.69;92.93;99795.28;4990440;28;20034;-81
2021/07/04 06:47:46;;;;;;;9.25;4.30;;;;;;;14.61;92.99;99779.38;4986583;28;20039;-81
2021/07/04 06:50:13;;;;;;;10.95;5.10;;;;;;;14.71;93.07;99784.22;4970926;28;20031;-81
2021/07/04 06:52:38;;;;;;;11.23;4.70;;;;;;;14.73;93.04;99784.84;4964713;28;20086;-81
2021/07/04 06:55:06;;;;;;;12.05;5.40;;;;;;;14.81;92.88;99781.00;4971328;28;20023;-82
2021/07/04 06:57:31;;;;;;;12.57;5.45;;;;;;;14.78;92.89;99773.34;4965735;28;20026;-83
2021/07/04 07:00:05;;;;;;;14.57;5.82;;;;;;;14.77;92.82;99769.00;4961251;28;20459;-82
2021/07/04 07:02:30;;;;;;;9.98;5.15;;;;;;;14.86;92.92;99784.66;4958486;28;20034;-81
2021/07/04 07:04:55;;;;;;;9.88;4.88;;;;;;;14.89;92.55;99781.50;4979504;28;20030;-82
2021/07/04 07:07:21;;;;;;;12.27;6.10;;;;;;;14.96;92.51;99792.25;4982628;28;21921;-82
2021/07/04 07:09:47;;;;;;;9.40;5.00;;;;;;;14.91;92.23;99782.09;4982636;28;20554;-82
2021/07/04 07:12:13;;;;;;;11.95;4.80;;;;;;;15.03;92.16;99793.00;4978039;28;20060;-81
2021/07/04 07:14:38;;;;;;;12.48;4.70;;;;;;;15.07;91.93;99794.19;4994270;28;20034;-82
2021/07/04 07:17:04;;;;;;;12.13;4.70;;;;;;;15.08;91.58;99793.16;4988693;28;20026;-83
2021/07/04 07:19:29;;;;;;;8.23;4.18;;;;;;;15.07;91.41;99782.53;4982396;28;20050;-81
2021/07/04 07:22:18;;;;;;;8.63;4.13;;;;;;;15.10;91.28;99796.44;4994319;28;20037;-82
2021/07/04 07:24:44;;;;;;;13.60;4.72;;;;;;;15.16;90.91;99795.53;4972203;28;20479;-81
2021/07/04 07:27:09;;;;;;;11.40;4.05;;;;;;;15.24;90.89;99799.81;4992555;28;20089;-81
2021/07/04 07:29:35;;;;;;;9.23;4.05;;;;;;;15.20;90.66;99795.06;4970051;28;20058;-82
2021/07/04 07:32:00;;;;;;;8.93;3.72;;;;;;;15.20;90.57;99786.94;4979396;28;20077;-82
2021/07/04 07:34:26;;;;;;;9.73;4.10;;;;;;;15.29;90.47;99796.38;4968291;28;20034;-82
2021/07/04 07:36:52;;;;;;;8.80;3.90;;;;;;;15.33;90.48;99789.47;4961503;28;20026;-82
2021/07/04 07:39:17;;;;;;;6.55;3.90;;;;;;;15.34;90.12;99789.22;4992815;28;20050;-82
2021/07/04 07:41:43;;;;;;;7.78;4.15;;;;;;;15.40;89.82;99790.22;4973048;28;20041;-82
2021/07/04 07:44:08;;;;;;;9.48;4.25;;;;;;;15.57;89.50;99803.91;4975323;28;20034;-77
2021/07/04 07:46:34;;;;;;;9.13;3.80;;;;;;;15.68;89.41;99799.56;4974298;28;20030;-77
2021/07/04 07:49:00;;;;;;;8.68;4.00;;;;;;;15.65;89.28;99787.31;4987871;28;20030;-77
2021/07/04 07:51:25;;;;;;;10.60;4.03;;;;;;;15.70;88.96;99783.94;4963304;28;20026;-77
2021/07/04 07:53:51;;;;;;;7.50;3.85;;;;;;;15.76;88.85;99791.94;4978009;28;20049;-77
2021/07/04 07:56:16;;;;;;;10.40;4.13;;;;;;;15.79;88.78;99786.06;4975674;28;20030;-77
2021/07/04 07:58:44;;;;;;;9.48;4.13;;;;;;;15.87;88.33;99786.78;4970845;28;20081;-77
2021/07/04 08:01:10;;;;;;;10.32;3.85;;;;;;;15.86;88.41;99791.38;4989585;28;20022;-77
2021/07/04 08:03:35;;;;;;;11.02;4.05;;;;;;;15.75;88.10;99786.78;4974643;28;20033;-77
2021/07/04 08:06:01;;;;;;;10.43;4.03;;;;;;;15.73;88.60;99797.00;4982512;28;20022;-77
2021/07/04 08:08:26;;;;;;;9.43;3.88;;;;;;;15.61;88.77;99795.09;4971401;28;20030;-76
2021/07/04 08:10:52;;;;;;;8.63;3.40;;;;;;;15.52;88.84;99791.03;4972431;28;20545;-77
2021/07/04 08:13:17;;;;;;;11.73;4.10;;;;;;;15.53;89.13;99797.28;4972963;28;20054;-77
2021/07/04 08:15:43;;;;;;;8.55;4.10;;;;;;;15.51;89.31;99791.28;4974417;28;20034;-77
2021/07/04 08:18:08;;;;;;;9.48;3.75;;;;;;;15.55;89.29;99792.47;4988181;28;20029;-76
2021/07/04 08:20:34;;;;;;;10.50;4.65;;;;;;;15.55;89.36;99797.88;4988430;28;20038;-77
2021/07/04 08:22:59;;;;;;;8.73;4.25;;;;;;;15.50;89.59;99797.75;4970518;28;20030;-77
2021/07/04 08:25:24;;;;;;;3.85;1.95;;;;;;;15.42;89.19;99800.78;4954824;28;20026;-75
2021/07/04 08:27:50;;;;;;;3.30;1.70;;;;;;;15.28;89.39;99790.16;4974548;28;20050;-84
2021/07/04 08:30:16;;;;;;;3.50;1.60;;;;;;;15.27;89.20;99799.34;4979113;28;20054;-85
2021/07/04 08:32:42;;;;;;;3.58;1.70;;;;;;;15.33;89.51;99801.13;4975654;28;20502;-83
2021/07/04 08:35:09;;;;;;;3.08;1.23;;;;;;;15.32;89.78;99799.47;4971945;28;20038;-84
2021/07/04 08:37:35;;;;;;;2.53;0.98;;;;;;;15.34;89.89;99802.75;4957280;28;20027;-84
2021/07/04 08:40:01;;;;;;;2.30;0.93;;;;;;;15.36;90.27;99810.66;4975339;28;20495;-84
2021/07/04 08:42:26;;;;;;;2.08;0.88;;;;;;;15.30;90.15;99796.16;4972482;28;20034;-83
2021/07/04 08:44:54;;;;;;;2.70;0.90;;;;;;;15.26;90.16;99803.09;4966451;28;20254;-83
2021/07/04 08:47:21;;;;;;;1.30;0.70;;;;;;;15.18;90.53;99798.81;4975352;28;20395;-83
2021/07/04 08:49:48;;;;;;;1.50;0.82;;;;;;;15.12;90.46;99807.88;4958528;28;20038;-84
2021/07/04 08:52:14;;;;;;;1.40;0.82;;;;;;;14.94;90.70;99781.66;4990794;28;20026;-84
2021/07/04 08:54:40;;;;;;;1.02;0.70;;;;;;;15.01;90.80;99799.69;4956411;28;20031;-85
2021/07/04 08:57:08;;;;;;;2.33;0.82;;;;;;;15.12;90.98;99802.44;4957677;28;20109;-86
2021/07/04 08:59:39;;;;;;;4.95;1.05;;;;;;;15.20;91.23;99801.31;4958130;28;20030;-85
2021/07/04 09:02:10;;;;;;;3.35;1.10;;;;;;;15.25;90.95;99809.56;4990539;28;20033;-85
2021/07/04 09:04:36;;;;;;;2.33;0.82;;;;;;;15.30;90.91;99801.59;4973741;28;20015;-85
2021/07/04 09:07:01;;;;;;;2.92;0.82;;;;;;;15.31;90.91;99800.53;4991826;28;20458;-84
2021/07/04 09:09:32;;;;;;;2.15;0.63;;;;;;;15.36;90.82;99803.38;4977606;28;20026;-84
2021/07/04 09:12:10;;;;;;;1.75;0.80;;;;;;;15.39;90.51;99800.19;4989715;28;20022;-85
2021/07/04 09:14:45;;;;;;;3.30;0.88;;;;;;;15.37;90.41;99796.91;4955778;28;20053;-84
2021/07/04 09:17:16;;;;;;;2.45;0.98;;;;;;;15.38;90.49;99789.59;4974017;28;20023;-83
2021/07/04 09:19:53;;;;;;;1.50;0.80;;;;;;;15.49;90.23;99794.22;4972344;28;20041;-84
2021/07/04 09:22:26;;;;;;;1.83;0.98;;;;;;;15.59;90.15;99799.91;4968676;28;20030;-83
2021/07/04 09:24:51;;;;;;;1.55;0.80;;;;;;;15.60;89.73;99785.28;4982758;28;20510;-85
2021/07/04 09:27:17;;;;;;;3.85;1.77;;;;;;;15.68;89.54;99789.53;4988662;28;20038;-84
2021/07/04 09:29:46;;;;;;;4.82;1.75;;;;;;;15.65;89.35;99776.47;4988297;28;20089;-84
2021/07/04 09:32:26;;;;;;;3.85;1.42;;;;;;;15.69;89.63;99788.53;4989403;28;20385;-85
2021/07/04 09:35:04;;;;;;;4.97;1.80;;;;;;;15.68;89.68;99786.84;4953142;28;20030;-84
2021/07/04 09:37:40;;;;;;;5.05;1.90;;;;;;;15.72;89.68;99779.94;4956412;28;20571;-83
2021/07/04 09:40:13;;;;;;;4.57;1.60;;;;;;;15.68;89.83;99780.59;4972192;28;20121;-83
2021/07/04 09:42:57;;;;;;;8.40;2.43;;;;;;;15.70;89.76;99784.75;4972497;28;20045;-84
2021/07/04 09:45:24;;;;;;;5.38;1.90;;;;;;;15.70;89.41;99779.34;4989391;28;20494;-83
2021/07/04 09:47:56;;;;;;;4.47;2.13;;;;;;;15.76;89.31;99783.81;4972703;28;20058;-84
2021/07/04 09:50:22;;;;;;;5.00;2.53;;;;;;;15.81;89.07;99783.94;4956140;28;20058;-84
2021/07/04 09:53:14;;;;;;;5.38;2.08;;;;;;;15.82;88.91;99782.91;4973471;28;20406;-83
2021/07/04 09:55:40;;;;;;;7.55;2.08;;;;;;;15.92;89.12;99766.03;4969911;28;20041;-84
2021/07/04 09:58:11;;;;;;;5.18;2.13;;;;;;;16.18;88.28;99780.19;4972169;28;20030;-83
2021/07/04 10:00:39;;;;;;;4.97;2.67;;;;;;;16.31;88.48;99771.00;4973990;28;20097;-84
2021/07/04 10:03:39;;;;;;;6.45;2.17;;;;;;;16.49;88.20;99776.28;4974255;28;20034;-81
2021/07/04 10:06:06;;;;;;;4.88;2.28;;;;;;;16.71;87.75;99771.84;4976399;28;20061;-81
2021/07/04 10:08:36;;;;;;;5.13;2.13;;;;;;;16.94;86.63;99769.34;4977702;28;20030;-80
2021/07/04 10:11:11;;;;;;;5.78;2.78;;;;;;;17.09;86.15;99772.31;4992692;28;20035;-81
2021/07/04 10:13:39;;;;;;;4.43;2.33;;;;;;;17.17;84.80;99762.97;4992203;28;20030;-81
2021/07/04 10:16:09;;;;;;;6.40;2.40;;;;;;;17.12;84.54;99759.09;4975174;28;20025;-82
2021/07/04 10:18:36;;;;;;;5.55;1.95;;;;;;;17.22;85.19;99782.91;4976313;28;20022;-83
2021/07/04 10:21:03;;;;;;;6.03;2.17;;;;;;;17.13;84.73;99755.31;4982295;28;20109;-83
2021/07/04 10:23:28;;;;;;;6.38;2.58;;;;;;;17.05;84.20;99765.75;4975590;28;20486;-82
2021/07/04 10:25:55;;;;;;;6.10;2.42;;;;;;;16.93;85.22;99771.22;4959910;28;20038;-82
2021/07/04 10:28:30;;;;;;;4.07;2.38;;;;;;;16.84;84.47;99772.66;4993892;28;20359;-81
2021/07/04 10:30:56;;;;;;;8.18;2.55;;;;;;;16.84;84.78;99761.81;4962049;28;20110;-82
2021/07/04 10:33:34;;;;;;;5.47;2.47;;;;;;;16.92;84.63;99767.66;4991048;28;20032;-82
2021/07/04 10:36:10;;;;;;;6.70;2.00;;;;;;;16.95;84.04;99762.84;4978913;28;20064;-81
2021/07/04 10:38:44;;;;;;;4.22;1.85;;;;;;;16.83;83.88;99750.13;4975607;28;20029;-81
2021/07/04 10:41:14;;;;;;;6.28;2.30;;;;;;;16.82;84.42;99766.66;4961051;28;20495;-83
2021/07/04 10:43:50;;;;;;;4.45;2.53;;;;;;;16.63;84.45;99774.94;4969355;28;20141;-82
2021/07/04 10:46:15;;;;;;;5.03;1.90;;;;;;;16.44;84.06;99770.72;5000822;28;20052;-82
2021/07/04 10:48:54;;;;;;;1.63;1.00;;;;;;;16.30;84.46;99770.16;4958963;28;20050;-82
2021/07/04 10:51:21;;;;;;;2.38;1.33;;;;;;;16.20;84.49;99762.63;4965770;28;20073;-83
2021/07/04 10:53:58;;;;;;;2.42;1.50;;;;;;;16.17;84.79;99763.09;4968242;28;20018;-83
2021/07/04 10:56:36;;;;;;;2.85;1.67;;;;;;;16.31;85.01;99773.69;4978239;28;20039;-83
2021/07/04 10:59:02;;;;;;;2.78;2.15;;;;;;;16.28;84.61;99766.84;4962506;28;20034;-83
2021/07/04 11:01:46;;;;;;;2.13;1.40;;;;;;;16.40;85.00;99777.69;4996041;28;20869;-82
2021/07/04 11:04:32;;;;;;;3.17;1.77;;;;;;;16.47;85.11;99768.34;4976727;28;20399;-81
2021/07/04 11:07:05;;;;;;;2.58;1.70;;;;;;;16.47;85.13;99764.81;4975042;28;20077;-81
2021/07/04 11:10:09;;;;;;;2.70;1.50;;;;;;;16.55;85.59;99775.31;4964732;28;20433;-80
2021/07/04 11:12:35;;;;;;;2.03;1.20;;;;;;;16.60;85.89;99777.31;4973574;28;20640;-81
2021/07/04 11:15:13;;;;;;;2.95;1.52;;;;;;;16.46;85.44;99768.63;4970571;28;20061;-79
2021/07/04 11:17:57;;;;;;;3.60;1.30;;;;;;;16.20;86.21;99773.47;5001648;28;20026;-82
2021/07/04 11:20:25;;;;;;;3.03;1.30;;;;;;;15.92;86.83;99768.75;5004051;28;20026;-82
2021/07/04 11:22:58;;;;;;;2.72;1.10;;;;;;;15.66;87.61;99771.88;4981603;28;20022;-82
2021/07/04 11:25:24;;;;;;;2.57;1.20;;;;;;;15.51;88.22;99770.44;4982195;28;20034;-82
2021/07/04 11:28:15;;;;;;;3.65;1.50;;;;;;;15.44;88.52;99779.72;4977865;28;20041;-81